sensor_id;sensor_type;location;lat;lon;timestamp;P1;durP1;ratioP1;P2;durP2;ratioP2
84163;SDS011;74288;46.872;7.802;2024-03-17T00:02:21;2.38;;;0.77;;
84163;SDS011;74288;46.872;7.802;2024-03-17T00:04:47;2.60;;;0.80;;
84163;SDS011;74288;46.872;7.802;2024-03-17T00:07:13;3.90;;;0.85;;
84163;SDS011;74288;46.872;7.802;2024-03-17T00:09:39;2.63;;;0.82;;
84163;SDS011;74288;46.872;7.802;2024-03-17T00:12:06;2.70;;;0.68;;
84163;SDS011;74288;46.872;7.802;2024-03-17T00:14:32;3.70;;;0.70;;
84163;SDS011;74288;46.872;7.802;2024-03-17T00:16:59;2.38;;;0.70;;
84163;SDS011;74288;46.872;7.802;2024-03-17T00:19:25;1.47;;;0.67;;
84163;SDS011;74288;46.872;7.802;2024-03-17T00:21:51;3.35;;;0.80;;
84163;SDS011;74288;46.872;7.802;2024-03-17T00:24:18;2.20;;;0.85;;
84163;SDS011;74288;46.872;7.802;2024-03-17T00:26:44;2.42;;;0.70;;
84163;SDS011;74288;46.872;7.802;2024-03-17T00:29:10;2.80;;;0.70;;
84163;SDS011;74288;46.872;7.802;2024-03-17T00:31:36;4.17;;;0.90;;
84163;SDS011;74288;46.872;7.802;2024-03-17T00:34:02;4.00;;;0.73;;
84163;SDS011;74288;46.872;7.802;2024-03-17T00:36:31;4.30;;;0.70;;
84163;SDS011;74288;46.872;7.802;2024-03-17T00:38:57;3.00;;;0.90;;
84163;SDS011;74288;46.872;7.802;2024-03-17T00:41:23;2.47;;;0.70;;
84163;SDS011;74288;46.872;7.802;2024-03-17T00:43:49;1.88;;;0.60;;
84163;SDS011;74288;46.872;7.802;2024-03-17T00:46:17;2.60;;;0.75;;
84163;SDS011;74288;46.872;7.802;2024-03-17T00:48:43;2.15;;;0.70;;
84163;SDS011;74288;46.872;7.802;2024-03-17T00:51:09;2.83;;;0.70;;
84163;SDS011;74288;46.872;7.802;2024-03-17T00:53:35;3.70;;;0.80;;
84163;SDS011;74288;46.872;7.802;2024-03-17T00:56:01;2.63;;;0.70;;
84163;SDS011;74288;46.872;7.802;2024-03-17T00:58:27;2.10;;;0.65;;
84163;SDS011;74288;46.872;7.802;2024-03-17T01:00:53;3.28;;;0.80;;
84163;SDS011;74288;46.872;7.802;2024-03-17T01:03:19;3.57;;;0.60;;
84163;SDS011;74288;46.872;7.802;2024-03-17T01:05:45;2.45;;;0.70;;
84163;SDS011;74288;46.872;7.802;2024-03-17T01:08:16;2.47;;;0.70;;
84163;SDS011;74288;46.872;7.802;2024-03-17T01:10:43;3.97;;;0.90;;
84163;SDS011;74288;46.872;7.802;2024-03-17T01:13:09;3.88;;;0.90;;
84163;SDS011;74288;46.872;7.802;2024-03-17T01:15:35;3.10;;;0.90;;
84163;SDS011;74288;46.872;7.802;2024-03-17T01:18:02;2.28;;;0.70;;
84163;SDS011;74288;46.872;7.802;2024-03-17T01:20:29;5.70;;;0.70;;
84163;SDS011;74288;46.872;7.802;2024-03-17T01:22:55;1.75;;;0.60;;
84163;SDS011;74288;46.872;7.802;2024-03-17T01:25:21;2.08;;;0.60;;
84163;SDS011;74288;46.872;7.802;2024-03-17T01:27:47;1.80;;;0.60;;
84163;SDS011;74288;46.872;7.802;2024-03-17T01:30:13;2.70;;;0.60;;
84163;SDS011;74288;46.872;7.802;2024-03-17T01:32:39;2.10;;;0.60;;
84163;SDS011;74288;46.872;7.802;2024-03-17T01:35:05;2.05;;;0.65;;
84163;SDS011;74288;46.872;7.802;2024-03-17T01:37:31;2.20;;;0.60;;
84163;SDS011;74288;46.872;7.802;2024-03-17T01:40:00;1.90;;;0.68;;
84163;SDS011;74288;46.872;7.802;2024-03-17T01:42:26;1.50;;;0.50;;
84163;SDS011;74288;46.872;7.802;2024-03-17T01:44:54;2.08;;;0.60;;
84163;SDS011;74288;46.872;7.802;2024-03-17T01:47:20;1.90;;;0.60;;
84163;SDS011;74288;46.872;7.802;2024-03-17T01:49:46;2.20;;;0.60;;
84163;SDS011;74288;46.872;7.802;2024-03-17T01:52:13;2.15;;;0.60;;
84163;SDS011;74288;46.872;7.802;2024-03-17T01:54:40;2.47;;;0.65;;
84163;SDS011;74288;46.872;7.802;2024-03-17T01:57:06;1.60;;;0.50;;
84163;SDS011;74288;46.872;7.802;2024-03-17T01:59:33;1.85;;;0.57;;
84163;SDS011;74288;46.872;7.802;2024-03-17T02:01:59;2.50;;;0.70;;
84163;SDS011;74288;46.872;7.802;2024-03-17T02:04:25;1.80;;;0.55;;
84163;SDS011;74288;46.872;7.802;2024-03-17T02:06:52;2.15;;;0.60;;
84163;SDS011;74288;46.872;7.802;2024-03-17T02:09:18;2.88;;;0.50;;
84163;SDS011;74288;46.872;7.802;2024-03-17T02:11:44;2.70;;;0.60;;
84163;SDS011;74288;46.872;7.802;2024-03-17T02:14:10;2.20;;;0.68;;
84163;SDS011;74288;46.872;7.802;2024-03-17T02:16:39;1.85;;;0.70;;
84163;SDS011;74288;46.872;7.802;2024-03-17T02:19:05;2.25;;;0.60;;
84163;SDS011;74288;46.872;7.802;2024-03-17T02:21:31;1.90;;;0.73;;
84163;SDS011;74288;46.872;7.802;2024-03-17T02:23:57;2.60;;;0.70;;
84163;SDS011;74288;46.872;7.802;2024-03-17T02:26:24;3.28;;;0.60;;
84163;SDS011;74288;46.872;7.802;2024-03-17T02:28:51;2.55;;;0.60;;
84163;SDS011;74288;46.872;7.802;2024-03-17T02:31:17;3.10;;;0.82;;
84163;SDS011;74288;46.872;7.802;2024-03-17T02:33:43;2.53;;;0.70;;
84163;SDS011;74288;46.872;7.802;2024-03-17T02:36:10;3.53;;;0.80;;
84163;SDS011;74288;46.872;7.802;2024-03-17T02:38:36;2.55;;;0.80;;
84163;SDS011;74288;46.872;7.802;2024-03-17T02:41:21;3.03;;;0.80;;
84163;SDS011;74288;46.872;7.802;2024-03-17T02:43:47;2.83;;;0.90;;
84163;SDS011;74288;46.872;7.802;2024-03-17T02:46:14;2.57;;;1.10;;
84163;SDS011;74288;46.872;7.802;2024-03-17T02:48:41;3.15;;;0.70;;
84163;SDS011;74288;46.872;7.802;2024-03-17T02:51:12;2.35;;;0.70;;
84163;SDS011;74288;46.872;7.802;2024-03-17T02:53:40;3.35;;;0.60;;
84163;SDS011;74288;46.872;7.802;2024-03-17T02:56:06;2.47;;;0.82;;
84163;SDS011;74288;46.872;7.802;2024-03-17T02:58:33;2.23;;;0.60;;
84163;SDS011;74288;46.872;7.802;2024-03-17T03:00:59;2.35;;;0.60;;
84163;SDS011;74288;46.872;7.802;2024-03-17T03:03:25;1.83;;;0.60;;
84163;SDS011;74288;46.872;7.802;2024-03-17T03:05:51;3.33;;;0.63;;
84163;SDS011;74288;46.872;7.802;2024-03-17T03:08:17;3.75;;;0.70;;
84163;SDS011;74288;46.872;7.802;2024-03-17T03:10:46;4.20;;;0.80;;
84163;SDS011;74288;46.872;7.802;2024-03-17T03:13:12;2.88;;;0.90;;
84163;SDS011;74288;46.872;7.802;2024-03-17T03:15:38;3.60;;;1.02;;
84163;SDS011;74288;46.872;7.802;2024-03-17T03:18:04;1.87;;;0.70;;
84163;SDS011;74288;46.872;7.802;2024-03-17T03:20:30;3.58;;;0.90;;
84163;SDS011;74288;46.872;7.802;2024-03-17T03:22:56;2.92;;;0.88;;
84163;SDS011;74288;46.872;7.802;2024-03-17T03:25:22;2.35;;;0.80;;
84163;SDS011;74288;46.872;7.802;2024-03-17T03:27:48;2.30;;;0.83;;
84163;SDS011;74288;46.872;7.802;2024-03-17T03:30:15;2.97;;;0.70;;
84163;SDS011;74288;46.872;7.802;2024-03-17T03:32:45;2.40;;;0.70;;
84163;SDS011;74288;46.872;7.802;2024-03-17T03:35:12;2.38;;;0.70;;
84163;SDS011;74288;46.872;7.802;2024-03-17T03:37:39;2.63;;;0.60;;
84163;SDS011;74288;46.872;7.802;2024-03-17T03:40:06;2.57;;;0.57;;
84163;SDS011;74288;46.872;7.802;2024-03-17T03:42:43;3.20;;;0.90;;
84163;SDS011;74288;46.872;7.802;2024-03-17T03:45:09;2.05;;;0.88;;
84163;SDS011;74288;46.872;7.802;2024-03-17T03:47:39;1.73;;;0.75;;
84163;SDS011;74288;46.872;7.802;2024-03-17T03:50:08;2.55;;;0.98;;
84163;SDS011;74288;46.872;7.802;2024-03-17T03:52:34;3.37;;;1.00;;
84163;SDS011;74288;46.872;7.802;2024-03-17T03:55:00;2.40;;;0.65;;
84163;SDS011;74288;46.872;7.802;2024-03-17T03:57:26;2.17;;;0.75;;
84163;SDS011;74288;46.872;7.802;2024-03-17T03:59:54;2.25;;;0.70;;
84163;SDS011;74288;46.872;7.802;2024-03-17T04:02:20;2.75;;;0.68;;
84163;SDS011;74288;46.872;7.802;2024-03-17T04:04:47;2.93;;;0.70;;
84163;SDS011;74288;46.872;7.802;2024-03-17T04:07:13;3.58;;;0.80;;
84163;SDS011;74288;46.872;7.802;2024-03-17T04:09:39;2.22;;;0.50;;
84163;SDS011;74288;46.872;7.802;2024-03-17T04:12:05;2.00;;;0.60;;
84163;SDS011;74288;46.872;7.802;2024-03-17T04:14:31;3.08;;;0.70;;
84163;SDS011;74288;46.872;7.802;2024-03-17T04:16:57;3.03;;;0.70;;
84163;SDS011;74288;46.872;7.802;2024-03-17T04:19:23;1.55;;;0.60;;
84163;SDS011;74288;46.872;7.802;2024-03-17T04:21:50;2.90;;;0.77;;
84163;SDS011;74288;46.872;7.802;2024-03-17T04:24:16;1.70;;;0.70;;
84163;SDS011;74288;46.872;7.802;2024-03-17T04:26:43;3.30;;;1.03;;
84163;SDS011;74288;46.872;7.802;2024-03-17T04:29:09;4.15;;;1.23;;
84163;SDS011;74288;46.872;7.802;2024-03-17T04:31:35;2.45;;;0.80;;
84163;SDS011;74288;46.872;7.802;2024-03-17T04:34:01;2.90;;;0.70;;
84163;SDS011;74288;46.872;7.802;2024-03-17T04:36:27;2.38;;;0.60;;
84163;SDS011;74288;46.872;7.802;2024-03-17T04:38:53;4.60;;;0.90;;
84163;SDS011;74288;46.872;7.802;2024-03-17T04:41:19;7.28;;;2.25;;
84163;SDS011;74288;46.872;7.802;2024-03-17T04:43:45;5.65;;;1.80;;
84163;SDS011;74288;46.872;7.802;2024-03-17T04:46:11;3.85;;;1.00;;
84163;SDS011;74288;46.872;7.802;2024-03-17T04:48:38;2.95;;;0.90;;
84163;SDS011;74288;46.872;7.802;2024-03-17T04:51:04;3.90;;;0.90;;
84163;SDS011;74288;46.872;7.802;2024-03-17T04:53:30;2.42;;;0.80;;
84163;SDS011;74288;46.872;7.802;2024-03-17T04:56:03;3.08;;;0.95;;
84163;SDS011;74288;46.872;7.802;2024-03-17T04:58:32;2.17;;;0.80;;
84163;SDS011;74288;46.872;7.802;2024-03-17T05:01:07;3.45;;;0.80;;
84163;SDS011;74288;46.872;7.802;2024-03-17T05:03:34;3.55;;;0.80;;
84163;SDS011;74288;46.872;7.802;2024-03-17T05:06:00;3.30;;;0.65;;
84163;SDS011;74288;46.872;7.802;2024-03-17T05:08:27;2.33;;;0.70;;
84163;SDS011;74288;46.872;7.802;2024-03-17T05:10:56;2.67;;;0.80;;
84163;SDS011;74288;46.872;7.802;2024-03-17T05:13:22;1.98;;;0.68;;
84163;SDS011;74288;46.872;7.802;2024-03-17T05:15:48;4.70;;;0.93;;
84163;SDS011;74288;46.872;7.802;2024-03-17T05:18:14;3.53;;;0.93;;
84163;SDS011;74288;46.872;7.802;2024-03-17T05:20:40;4.43;;;1.13;;
84163;SDS011;74288;46.872;7.802;2024-03-17T05:23:06;4.40;;;1.00;;
84163;SDS011;74288;46.872;7.802;2024-03-17T05:25:32;3.97;;;1.20;;
84163;SDS011;74288;46.872;7.802;2024-03-17T05:28:01;4.00;;;0.90;;
84163;SDS011;74288;46.872;7.802;2024-03-17T05:30:27;3.47;;;0.80;;
84163;SDS011;74288;46.872;7.802;2024-03-17T05:32:54;3.13;;;0.73;;
84163;SDS011;74288;46.872;7.802;2024-03-17T05:35:20;3.85;;;1.00;;
84163;SDS011;74288;46.872;7.802;2024-03-17T05:37:46;3.58;;;0.70;;
84163;SDS011;74288;46.872;7.802;2024-03-17T05:40:12;3.33;;;0.80;;
84163;SDS011;74288;46.872;7.802;2024-03-17T05:42:38;4.88;;;1.08;;
84163;SDS011;74288;46.872;7.802;2024-03-17T05:45:04;3.90;;;0.90;;
84163;SDS011;74288;46.872;7.802;2024-03-17T05:47:30;2.87;;;0.70;;
84163;SDS011;74288;46.872;7.802;2024-03-17T05:49:56;2.33;;;0.80;;
84163;SDS011;74288;46.872;7.802;2024-03-17T05:52:22;3.33;;;0.85;;
84163;SDS011;74288;46.872;7.802;2024-03-17T05:54:47;4.75;;;0.80;;
84163;SDS011;74288;46.872;7.802;2024-03-17T05:57:13;3.63;;;0.90;;
84163;SDS011;74288;46.872;7.802;2024-03-17T05:59:41;3.42;;;0.80;;
84163;SDS011;74288;46.872;7.802;2024-03-17T06:02:07;4.88;;;0.95;;
84163;SDS011;74288;46.872;7.802;2024-03-17T06:04:35;3.47;;;0.90;;
84163;SDS011;74288;46.872;7.802;2024-03-17T06:07:03;3.33;;;1.10;;
84163;SDS011;74288;46.872;7.802;2024-03-17T06:09:29;4.80;;;1.40;;
84163;SDS011;74288;46.872;7.802;2024-03-17T06:11:55;2.63;;;0.80;;
84163;SDS011;74288;46.872;7.802;2024-03-17T06:14:21;3.63;;;0.95;;
84163;SDS011;74288;46.872;7.802;2024-03-17T06:16:47;2.30;;;0.82;;
84163;SDS011;74288;46.872;7.802;2024-03-17T06:19:13;4.00;;;1.08;;
84163;SDS011;74288;46.872;7.802;2024-03-17T06:21:39;5.43;;;1.10;;
84163;SDS011;74288;46.872;7.802;2024-03-17T06:24:05;3.85;;;0.90;;
84163;SDS011;74288;46.872;7.802;2024-03-17T06:26:31;4.93;;;1.20;;
84163;SDS011;74288;46.872;7.802;2024-03-17T06:29:00;4.90;;;1.20;;
84163;SDS011;74288;46.872;7.802;2024-03-17T06:31:25;3.85;;;1.10;;
84163;SDS011;74288;46.872;7.802;2024-03-17T06:33:51;4.88;;;1.20;;
84163;SDS011;74288;46.872;7.802;2024-03-17T06:36:17;3.60;;;1.00;;
84163;SDS011;74288;46.872;7.802;2024-03-17T06:38:43;3.90;;;1.30;;
84163;SDS011;74288;46.872;7.802;2024-03-17T06:41:10;4.70;;;1.23;;
84163;SDS011;74288;46.872;7.802;2024-03-17T06:43:36;3.92;;;1.20;;
84163;SDS011;74288;46.872;7.802;2024-03-17T06:46:02;5.68;;;1.40;;
84163;SDS011;74288;46.872;7.802;2024-03-17T06:48:29;5.27;;;1.03;;
84163;SDS011;74288;46.872;7.802;2024-03-17T06:50:55;4.72;;;1.80;;
84163;SDS011;74288;46.872;7.802;2024-03-17T06:53:21;6.15;;;2.20;;
84163;SDS011;74288;46.872;7.802;2024-03-17T06:55:57;6.78;;;2.20;;
84163;SDS011;74288;46.872;7.802;2024-03-17T06:58:23;4.53;;;1.53;;
84163;SDS011;74288;46.872;7.802;2024-03-17T07:01:00;4.63;;;1.38;;
84163;SDS011;74288;46.872;7.802;2024-03-17T07:03:27;3.63;;;1.30;;
84163;SDS011;74288;46.872;7.802;2024-03-17T07:05:57;3.35;;;1.20;;
84163;SDS011;74288;46.872;7.802;2024-03-17T07:08:23;3.85;;;1.13;;
84163;SDS011;74288;46.872;7.802;2024-03-17T07:11:03;4.23;;;1.20;;
84163;SDS011;74288;46.872;7.802;2024-03-17T07:13:31;3.25;;;1.00;;
84163;SDS011;74288;46.872;7.802;2024-03-17T07:15:58;2.72;;;1.10;;
84163;SDS011;74288;46.872;7.802;2024-03-17T07:18:27;5.18;;;1.27;;
84163;SDS011;74288;46.872;7.802;2024-03-17T07:21:00;2.40;;;1.00;;
84163;SDS011;74288;46.872;7.802;2024-03-17T07:23:28;3.37;;;1.20;;
84163;SDS011;74288;46.872;7.802;2024-03-17T07:25:55;3.17;;;1.10;;
84163;SDS011;74288;46.872;7.802;2024-03-17T07:28:21;3.08;;;1.13;;
84163;SDS011;74288;46.872;7.802;2024-03-17T07:30:52;3.10;;;1.00;;
84163;SDS011;74288;46.872;7.802;2024-03-17T07:33:18;2.97;;;1.10;;
84163;SDS011;74288;46.872;7.802;2024-03-17T07:38:13;5.38;;;1.70;;
84163;SDS011;74288;46.872;7.802;2024-03-17T07:40:40;4.63;;;1.50;;
84163;SDS011;74288;46.872;7.802;2024-03-17T07:43:06;4.15;;;1.35;;
84163;SDS011;74288;46.872;7.802;2024-03-17T07:45:32;3.57;;;1.30;;
84163;SDS011;74288;46.872;7.802;2024-03-17T07:47:58;6.25;;;1.40;;
84163;SDS011;74288;46.872;7.802;2024-03-17T07:50:24;3.85;;;1.20;;
84163;SDS011;74288;46.872;7.802;2024-03-17T07:52:50;4.82;;;1.90;;
84163;SDS011;74288;46.872;7.802;2024-03-17T07:55:16;8.50;;;3.43;;
84163;SDS011;74288;46.872;7.802;2024-03-17T07:57:42;8.85;;;3.35;;
84163;SDS011;74288;46.872;7.802;2024-03-17T08:00:09;8.63;;;3.35;;
84163;SDS011;74288;46.872;7.802;2024-03-17T08:02:41;5.32;;;1.60;;
84163;SDS011;74288;46.872;7.802;2024-03-17T08:05:07;4.80;;;1.63;;
84163;SDS011;74288;46.872;7.802;2024-03-17T08:07:33;3.17;;;1.30;;
84163;SDS011;74288;46.872;7.802;2024-03-17T08:09:59;4.25;;;1.23;;
84163;SDS011;74288;46.872;7.802;2024-03-17T08:12:25;4.68;;;1.30;;
84163;SDS011;74288;46.872;7.802;2024-03-17T08:14:51;6.15;;;1.40;;
84163;SDS011;74288;46.872;7.802;2024-03-17T08:17:17;4.67;;;1.53;;
84163;SDS011;74288;46.872;7.802;2024-03-17T08:19:43;5.88;;;1.40;;
84163;SDS011;74288;46.872;7.802;2024-03-17T08:22:09;7.53;;;1.40;;
84163;SDS011;74288;46.872;7.802;2024-03-17T08:24:35;3.75;;;1.10;;
84163;SDS011;74288;46.872;7.802;2024-03-17T08:27:01;4.77;;;1.30;;
84163;SDS011;74288;46.872;7.802;2024-03-17T08:29:26;6.20;;;2.10;;
84163;SDS011;74288;46.872;7.802;2024-03-17T08:31:52;5.85;;;1.88;;
84163;SDS011;74288;46.872;7.802;2024-03-17T08:34:18;7.57;;;2.90;;
84163;SDS011;74288;46.872;7.802;2024-03-17T08:36:44;4.70;;;2.00;;
84163;SDS011;74288;46.872;7.802;2024-03-17T08:39:11;3.90;;;1.38;;
84163;SDS011;74288;46.872;7.802;2024-03-17T08:41:37;4.20;;;1.30;;
84163;SDS011;74288;46.872;7.802;2024-03-17T08:44:03;3.83;;;1.30;;
84163;SDS011;74288;46.872;7.802;2024-03-17T08:46:31;4.23;;;1.40;;
84163;SDS011;74288;46.872;7.802;2024-03-17T08:48:57;3.58;;;1.15;;
84163;SDS011;74288;46.872;7.802;2024-03-17T08:51:23;2.90;;;1.15;;
84163;SDS011;74288;46.872;7.802;2024-03-17T08:53:49;4.80;;;1.70;;
84163;SDS011;74288;46.872;7.802;2024-03-17T08:56:15;4.43;;;1.60;;
84163;SDS011;74288;46.872;7.802;2024-03-17T08:58:41;4.47;;;1.40;;
84163;SDS011;74288;46.872;7.802;2024-03-17T09:01:07;4.13;;;1.08;;
84163;SDS011;74288;46.872;7.802;2024-03-17T09:03:34;4.43;;;1.10;;
84163;SDS011;74288;46.872;7.802;2024-03-17T09:06:00;4.10;;;1.40;;
84163;SDS011;74288;46.872;7.802;2024-03-17T09:08:26;4.57;;;1.40;;
84163;SDS011;74288;46.872;7.802;2024-03-17T09:10:53;4.25;;;1.40;;
84163;SDS011;74288;46.872;7.802;2024-03-17T09:13:20;4.20;;;1.35;;
84163;SDS011;74288;46.872;7.802;2024-03-17T09:15:53;4.75;;;1.20;;
84163;SDS011;74288;46.872;7.802;2024-03-17T09:18:19;3.57;;;1.33;;
84163;SDS011;74288;46.872;7.802;2024-03-17T09:20:45;3.67;;;1.30;;
84163;SDS011;74288;46.872;7.802;2024-03-17T09:23:11;4.45;;;1.50;;
84163;SDS011;74288;46.872;7.802;2024-03-17T09:25:39;3.75;;;1.30;;
84163;SDS011;74288;46.872;7.802;2024-03-17T09:28:05;4.38;;;1.48;;
84163;SDS011;74288;46.872;7.802;2024-03-17T09:30:31;4.10;;;1.30;;
84163;SDS011;74288;46.872;7.802;2024-03-17T09:32:57;4.00;;;1.20;;
84163;SDS011;74288;46.872;7.802;2024-03-17T09:35:22;5.05;;;1.20;;
84163;SDS011;74288;46.872;7.802;2024-03-17T09:37:49;3.00;;;1.00;;
84163;SDS011;74288;46.872;7.802;2024-03-17T09:40:15;4.87;;;1.30;;
84163;SDS011;74288;46.872;7.802;2024-03-17T09:42:41;5.05;;;1.48;;
84163;SDS011;74288;46.872;7.802;2024-03-17T09:45:10;3.60;;;1.40;;
84163;SDS011;74288;46.872;7.802;2024-03-17T09:47:36;2.58;;;1.20;;
84163;SDS011;74288;46.872;7.802;2024-03-17T09:50:03;5.27;;;1.30;;
84163;SDS011;74288;46.872;7.802;2024-03-17T09:52:29;3.83;;;1.02;;
84163;SDS011;74288;46.872;7.802;2024-03-17T09:54:58;3.15;;;1.10;;
84163;SDS011;74288;46.872;7.802;2024-03-17T09:57:24;5.25;;;1.10;;
84163;SDS011;74288;46.872;7.802;2024-03-17T09:59:50;4.13;;;0.97;;
84163;SDS011;74288;46.872;7.802;2024-03-17T10:02:17;4.22;;;1.33;;
84163;SDS011;74288;46.872;7.802;2024-03-17T10:04:44;4.00;;;1.35;;
84163;SDS011;74288;46.872;7.802;2024-03-17T10:07:10;4.28;;;1.30;;
84163;SDS011;74288;46.872;7.802;2024-03-17T10:09:36;3.60;;;1.40;;
84163;SDS011;74288;46.872;7.802;2024-03-17T10:12:04;5.93;;;1.40;;
84163;SDS011;74288;46.872;7.802;2024-03-17T10:14:31;3.33;;;1.27;;
84163;SDS011;74288;46.872;7.802;2024-03-17T10:16:58;4.65;;;1.40;;
84163;SDS011;74288;46.872;7.802;2024-03-17T10:19:24;3.42;;;1.20;;
84163;SDS011;74288;46.872;7.802;2024-03-17T10:21:58;3.15;;;1.10;;
84163;SDS011;74288;46.872;7.802;2024-03-17T10:24:25;4.10;;;1.13;;
84163;SDS011;74288;46.872;7.802;2024-03-17T10:26:54;3.03;;;1.20;;
84163;SDS011;74288;46.872;7.802;2024-03-17T10:29:27;4.78;;;1.20;;
84163;SDS011;74288;46.872;7.802;2024-03-17T10:31:55;4.68;;;1.00;;
84163;SDS011;74288;46.872;7.802;2024-03-17T10:34:22;2.42;;;0.90;;
84163;SDS011;74288;46.872;7.802;2024-03-17T10:37:05;2.30;;;1.00;;
84163;SDS011;74288;46.872;7.802;2024-03-17T10:39:31;2.88;;;1.02;;
84163;SDS011;74288;46.872;7.802;2024-03-17T10:42:03;3.17;;;1.10;;
84163;SDS011;74288;46.872;7.802;2024-03-17T10:44:30;4.93;;;1.00;;
84163;SDS011;74288;46.872;7.802;2024-03-17T10:46:56;5.18;;;1.30;;
84163;SDS011;74288;46.872;7.802;2024-03-17T10:49:23;4.90;;;1.33;;
84163;SDS011;74288;46.872;7.802;2024-03-17T10:51:55;4.97;;;1.10;;
84163;SDS011;74288;46.872;7.802;2024-03-17T10:54:23;3.83;;;1.10;;
84163;SDS011;74288;46.872;7.802;2024-03-17T10:56:53;3.45;;;0.93;;
84163;SDS011;74288;46.872;7.802;2024-03-17T10:59:19;3.55;;;0.80;;
84163;SDS011;74288;46.872;7.802;2024-03-17T11:01:47;4.27;;;1.10;;
84163;SDS011;74288;46.872;7.802;2024-03-17T11:04:14;3.78;;;1.10;;
84163;SDS011;74288;46.872;7.802;2024-03-17T11:06:40;3.17;;;1.00;;
84163;SDS011;74288;46.872;7.802;2024-03-17T11:09:07;3.55;;;1.00;;
84163;SDS011;74288;46.872;7.802;2024-03-17T11:11:38;2.90;;;0.82;;
84163;SDS011;74288;46.872;7.802;2024-03-17T11:14:16;3.70;;;1.00;;
84163;SDS011;74288;46.872;7.802;2024-03-17T11:16:44;3.45;;;0.80;;
84163;SDS011;74288;46.872;7.802;2024-03-17T11:19:14;3.67;;;0.82;;
84163;SDS011;74288;46.872;7.802;2024-03-17T11:21:41;3.83;;;0.90;;
84163;SDS011;74288;46.872;7.802;2024-03-17T11:24:07;4.75;;;0.98;;
84163;SDS011;74288;46.872;7.802;2024-03-17T11:26:43;3.50;;;0.70;;
84163;SDS011;74288;46.872;7.802;2024-03-17T11:29:23;3.72;;;0.88;;
84163;SDS011;74288;46.872;7.802;2024-03-17T11:31:51;2.67;;;0.88;;
84163;SDS011;74288;46.872;7.802;2024-03-17T11:34:27;2.83;;;0.82;;
84163;SDS011;74288;46.872;7.802;2024-03-17T11:36:53;5.53;;;0.80;;
84163;SDS011;74288;46.872;7.802;2024-03-17T11:39:19;4.18;;;1.23;;
84163;SDS011;74288;46.872;7.802;2024-03-17T11:41:50;2.97;;;0.82;;
84163;SDS011;74288;46.872;7.802;2024-03-17T11:47:05;3.95;;;0.95;;
84163;SDS011;74288;46.872;7.802;2024-03-17T11:49:35;3.07;;;0.70;;
84163;SDS011;74288;46.872;7.802;2024-03-17T11:52:12;3.00;;;0.90;;
84163;SDS011;74288;46.872;7.802;2024-03-17T11:54:44;3.15;;;0.90;;
84163;SDS011;74288;46.872;7.802;2024-03-17T11:57:11;3.20;;;0.80;;
84163;SDS011;74288;46.872;7.802;2024-03-17T11:59:38;2.08;;;0.73;;
84163;SDS011;74288;46.872;7.802;2024-03-17T12:02:17;2.80;;;0.80;;
84163;SDS011;74288;46.872;7.802;2024-03-17T12:04:43;4.72;;;1.00;;
84163;SDS011;74288;46.872;7.802;2024-03-17T12:07:19;3.70;;;0.80;;
84163;SDS011;74288;46.872;7.802;2024-03-17T12:09:46;4.03;;;1.10;;
84163;SDS011;74288;46.872;7.802;2024-03-17T12:12:19;3.55;;;0.90;;
84163;SDS011;74288;46.872;7.802;2024-03-17T12:14:45;4.07;;;0.98;;
84163;SDS011;74288;46.872;7.802;2024-03-17T12:17:13;2.80;;;0.88;;
84163;SDS011;74288;46.872;7.802;2024-03-17T12:19:40;3.50;;;0.80;;
84163;SDS011;74288;46.872;7.802;2024-03-17T12:22:09;3.88;;;0.80;;
84163;SDS011;74288;46.872;7.802;2024-03-17T12:24:38;3.03;;;0.80;;
84163;SDS011;74288;46.872;7.802;2024-03-17T12:27:05;3.73;;;0.90;;
84163;SDS011;74288;46.872;7.802;2024-03-17T12:29:32;2.50;;;1.00;;
84163;SDS011;74288;46.872;7.802;2024-03-17T12:31:59;2.78;;;0.85;;
84163;SDS011;74288;46.872;7.802;2024-03-17T12:34:30;5.03;;;0.90;;
84163;SDS011;74288;46.872;7.802;2024-03-17T12:36:56;3.17;;;0.90;;
84163;SDS011;74288;46.872;7.802;2024-03-17T12:39:24;4.10;;;1.03;;
84163;SDS011;74288;46.872;7.802;2024-03-17T12:42:01;3.35;;;0.98;;
84163;SDS011;74288;46.872;7.802;2024-03-17T12:44:28;3.70;;;1.00;;
84163;SDS011;74288;46.872;7.802;2024-03-17T12:46:55;3.72;;;0.90;;
84163;SDS011;74288;46.872;7.802;2024-03-17T12:49:21;1.63;;;0.80;;
84163;SDS011;74288;46.872;7.802;2024-03-17T12:51:50;3.63;;;1.00;;
84163;SDS011;74288;46.872;7.802;2024-03-17T12:54:16;7.55;;;0.80;;
84163;SDS011;74288;46.872;7.802;2024-03-17T12:56:44;2.83;;;0.80;;
84163;SDS011;74288;46.872;7.802;2024-03-17T12:59:42;6.88;;;1.10;;
84163;SDS011;74288;46.872;7.802;2024-03-17T13:02:27;4.00;;;0.98;;
84163;SDS011;74288;46.872;7.802;2024-03-17T13:07:31;3.28;;;1.00;;
84163;SDS011;74288;46.872;7.802;2024-03-17T13:09:57;2.55;;;0.77;;
84163;SDS011;74288;46.872;7.802;2024-03-17T13:12:23;3.75;;;0.90;;
84163;SDS011;74288;46.872;7.802;2024-03-17T13:14:49;3.38;;;0.90;;
84163;SDS011;74288;46.872;7.802;2024-03-17T13:17:15;4.38;;;0.90;;
84163;SDS011;74288;46.872;7.802;2024-03-17T13:19:44;4.32;;;1.05;;
84163;SDS011;74288;46.872;7.802;2024-03-17T13:22:11;4.68;;;1.15;;
84163;SDS011;74288;46.872;7.802;2024-03-17T13:24:37;5.20;;;1.70;;
84163;SDS011;74288;46.872;7.802;2024-03-17T13:27:03;4.80;;;1.17;;
84163;SDS011;74288;46.872;7.802;2024-03-17T13:29:30;5.97;;;1.67;;
84163;SDS011;74288;46.872;7.802;2024-03-17T13:31:58;3.38;;;0.90;;
84163;SDS011;74288;46.872;7.802;2024-03-17T13:34:24;3.88;;;0.85;;
84163;SDS011;74288;46.872;7.802;2024-03-17T13:36:53;4.33;;;1.10;;
84163;SDS011;74288;46.872;7.802;2024-03-17T13:39:19;4.28;;;0.90;;
84163;SDS011;74288;46.872;7.802;2024-03-17T13:41:46;3.90;;;1.00;;
84163;SDS011;74288;46.872;7.802;2024-03-17T13:44:14;4.13;;;1.00;;
84163;SDS011;74288;46.872;7.802;2024-03-17T13:46:40;3.80;;;0.95;;
84163;SDS011;74288;46.872;7.802;2024-03-17T13:49:09;4.68;;;1.30;;
84163;SDS011;74288;46.872;7.802;2024-03-17T13:51:35;3.25;;;0.93;;
84163;SDS011;74288;46.872;7.802;2024-03-17T13:54:02;4.25;;;1.23;;
84163;SDS011;74288;46.872;7.802;2024-03-17T13:56:28;4.03;;;0.90;;
84163;SDS011;74288;46.872;7.802;2024-03-17T13:58:54;3.90;;;1.20;;
84163;SDS011;74288;46.872;7.802;2024-03-17T14:01:20;4.45;;;1.13;;
84163;SDS011;74288;46.872;7.802;2024-03-17T14:03:46;3.60;;;1.00;;
84163;SDS011;74288;46.872;7.802;2024-03-17T14:06:12;4.20;;;1.00;;
84163;SDS011;74288;46.872;7.802;2024-03-17T14:08:38;3.67;;;1.20;;
84163;SDS011;74288;46.872;7.802;2024-03-17T14:11:04;4.03;;;1.00;;
84163;SDS011;74288;46.872;7.802;2024-03-17T14:13:30;4.78;;;1.13;;
84163;SDS011;74288;46.872;7.802;2024-03-17T14:15:56;5.95;;;1.35;;
84163;SDS011;74288;46.872;7.802;2024-03-17T14:18:22;6.05;;;1.27;;
84163;SDS011;74288;46.872;7.802;2024-03-17T14:20:48;2.90;;;0.90;;
84163;SDS011;74288;46.872;7.802;2024-03-17T14:23:15;3.78;;;1.10;;
84163;SDS011;74288;46.872;7.802;2024-03-17T14:25:41;3.22;;;1.10;;
84163;SDS011;74288;46.872;7.802;2024-03-17T14:28:07;5.00;;;1.30;;
84163;SDS011;74288;46.872;7.802;2024-03-17T14:30:34;9.70;;;1.90;;
84163;SDS011;74288;46.872;7.802;2024-03-17T14:33:00;4.22;;;1.05;;
84163;SDS011;74288;46.872;7.802;2024-03-17T14:35:26;4.00;;;1.60;;
84163;SDS011;74288;46.872;7.802;2024-03-17T14:37:52;5.55;;;1.70;;
84163;SDS011;74288;46.872;7.802;2024-03-17T14:40:19;5.97;;;1.58;;
84163;SDS011;74288;46.872;7.802;2024-03-17T14:42:48;6.03;;;1.30;;
84163;SDS011;74288;46.872;7.802;2024-03-17T14:45:14;5.45;;;1.50;;
84163;SDS011;74288;46.872;7.802;2024-03-17T14:47:40;6.93;;;1.88;;
84163;SDS011;74288;46.872;7.802;2024-03-17T14:50:06;3.67;;;1.40;;
84163;SDS011;74288;46.872;7.802;2024-03-17T14:52:33;6.20;;;1.60;;
84163;SDS011;74288;46.872;7.802;2024-03-17T14:55:00;6.45;;;1.60;;
84163;SDS011;74288;46.872;7.802;2024-03-17T14:57:26;6.40;;;1.70;;